Time;durP1;ratioP1;P1;durP2;ratioP2;P2;SDS_P1;SDS_P2;PMS_P1;PMS_P2;Temp;Humidity;BMP_temperature;BMP_pressure;BME280_temperature;BME280_humidity;BME280_pressure;Samples;Min_cycle;Max_cycle;Signal;HPM_P1;HPM_P2
2021/11/24 00:00:28;;;;;;;20.80;18.98;;;;;;;;;;5036482;28;20028;-74
2021/11/24 00:02:55;;;;;;;21.60;19.35;;;;;;;;;;5034977;28;20033;-74
2021/11/24 00:05:23;;;;;;;20.92;19.15;;;;;;;;;;5034687;28;20045;-75
2021/11/24 00:07:50;;;;;;;22.13;20.17;;;;;;;;;;5036129;28;20466;-75
2021/11/24 00:10:18;;;;;;;21.63;19.88;;;;;;;;;;5036102;28;20470;-75
2021/11/24 00:12:46;;;;;;;20.95;19.42;;;;;;;;;;5036095;28;20025;-75
2021/11/24 00:15:13;;;;;;;23.30;21.13;;;;;;;;;;5036035;28;20027;-75
2021/11/24 00:17:41;;;;;;;23.20;21.15;;;;;;;;;;5035990;28;20076;-76
2021/11/24 00:20:09;;;;;;;23.50;21.42;;;;;;;;;;5035346;28;20022;-77
2021/11/24 00:22:36;;;;;;;22.40;20.40;;;;;;;;;;5036163;28;20024;-76
2021/11/24 00:25:04;;;;;;;21.83;19.98;;;;;;;;;;5034876;28;20021;-76
2021/11/24 00:27:31;;;;;;;22.50;20.40;;;;;;;;;;5033685;28;20028;-75
2021/11/24 00:29:58;;;;;;;22.00;20.30;;;;;;;;;;5035686;28;20481;-76
2021/11/24 00:32:25;;;;;;;21.80;19.92;;;;;;;;;;5035584;28;20446;-76
2021/11/24 00:34:53;;;;;;;20.52;18.92;;;;;;;;;;5035684;28;20017;-76
2021/11/24 00:37:20;;;;;;;21.38;19.35;;;;;;;;;;5034391;28;20475;-76
2021/11/24 00:39:47;;;;;;;21.42;19.42;;;;;;;;;;5034191;28;20029;-76
2021/11/24 00:42:14;;;;;;;20.45;18.45;;;;;;;;;;5034452;28;20028;-76
2021/11/24 00:44:41;;;;;;;19.90;18.00;;;;;;;;;;5035712;28;20402;-76
2021/11/24 00:47:09;;;;;;;20.35;18.17;;;;;;;;;;5034277;28;20057;-76
2021/11/24 00:49:39;;;;;;;18.75;16.85;;;;;;;;;;5035285;28;20041;-75
2021/11/24 00:52:07;;;;;;;19.08;17.30;;;;;;;;;;5033938;28;20100;-75
2021/11/24 00:54:35;;;;;;;18.20;16.40;;;;;;;;;;5033933;28;20441;-76
2021/11/24 00:57:02;;;;;;;18.85;16.45;;;;;;;;;;5034136;28;20483;-75
2021/11/24 00:59:29;;;;;;;18.67;17.10;;;;;;;;;;5035407;28;20032;-75
2021/11/24 01:01:56;;;;;;;19.23;17.58;;;;;;;;;;5034020;28;20534;-76
2021/11/24 01:04:23;;;;;;;18.73;17.08;;;;;;;;;;5035107;28;20070;-76
2021/11/24 01:06:50;;;;;;;17.92;16.10;;;;;;;;;;5033822;28;20132;-76
2021/11/24 01:09:17;;;;;;;17.75;16.00;;;;;;;;;;5034984;28;20029;-75
2021/11/24 01:11:45;;;;;;;16.30;14.85;;;;;;;;;;5033796;28;20025;-76
2021/11/24 01:14:12;;;;;;;15.23;14.00;;;;;;;;;;5033694;28;20052;-76
2021/11/24 01:16:39;;;;;;;16.73;15.07;;;;;;;;;;5033859;28;20041;-76
2021/11/24 01:19:06;;;;;;;16.52;14.75;;;;;;;;;;5033622;28;20048;-75
2021/11/24 01:21:33;;;;;;;17.15;15.60;;;;;;;;;;5035027;28;20026;-76
2021/11/24 01:24:00;;;;;;;16.50;14.95;;;;;;;;;;5035103;28;20039;-75
2021/11/24 01:26:28;;;;;;;16.95;15.35;;;;;;;;;;5034638;28;20409;-77
2021/11/24 01:28:55;;;;;;;19.40;17.30;;;;;;;;;;5035043;28;20014;-76
2021/11/24 01:31:22;;;;;;;18.17;16.48;;;;;;;;;;5033242;28;20060;-76
2021/11/24 01:33:49;;;;;;;17.60;15.88;;;;;;;;;;5034653;28;20022;-75
2021/11/24 01:36:16;;;;;;;18.63;17.02;;;;;;;;;;5034291;28;20030;-76
2021/11/24 01:38:44;;;;;;;19.27;17.52;;;;;;;;;;5033091;28;20117;-76
2021/11/24 01:41:11;;;;;;;20.67;17.08;;;;;;;;;;5033684;28;20091;-75
2021/11/24 01:43:38;;;;;;;17.90;16.30;;;;;;;;;;5033227;28;20025;-75
2021/11/24 01:46:05;;;;;;;16.98;15.52;;;;;;;;;;5034028;28;20037;-76
2021/11/24 01:48:32;;;;;;;17.40;14.70;;;;;;;;;;5034070;28;20033;-76
2021/11/24 01:51:00;;;;;;;16.55;14.20;;;;;;;;;;5033158;28;20575;-76
2021/11/24 01:53:28;;;;;;;15.38;13.90;;;;;;;;;;5033144;28;20333;-77
2021/11/24 01:55:56;;;;;;;13.95;12.85;;;;;;;;;;5033128;28;20047;-75
2021/11/24 01:58:24;;;;;;;13.65;12.43;;;;;;;;;;5034424;28;20390;-75
2021/11/24 02:00:52;;;;;;;13.38;12.32;;;;;;;;;;5032751;28;20489;-77
2021/11/24 02:03:20;;;;;;;14.13;11.45;;;;;;;;;;5032756;28;20060;-77
2021/11/24 02:05:47;;;;;;;11.40;10.40;;;;;;;;;;5033259;28;20044;-77
2021/11/24 02:08:14;;;;;;;12.32;11.13;;;;;;;;;;5033104;28;20028;-78
2021/11/24 02:10:41;;;;;;;15.07;11.82;;;;;;;;;;5032798;28;20486;-76
2021/11/24 02:13:08;;;;;;;13.20;12.00;;;;;;;;;;5033755;28;20073;-76
2021/11/24 02:15:35;;;;;;;13.15;11.90;;;;;;;;;;5034124;28;20053;-76
2021/11/24 02:18:04;;;;;;;13.80;12.48;;;;;;;;;;5033876;28;20112;-76
2021/11/24 02:20:39;;;;;;;13.95;12.65;;;;;;;;;;5035110;28;20051;-77
2021/11/24 02:23:07;;;;;;;13.02;11.77;;;;;;;;;;5035405;28;20025;-76
2021/11/24 02:25:35;;;;;;;12.82;11.38;;;;;;;;;;5034867;28;20040;-75
2021/11/24 02:28:02;;;;;;;12.85;11.48;;;;;;;;;;5035176;28;20022;-76
2021/11/24 02:30:29;;;;;;;11.55;10.15;;;;;;;;;;5034980;28;20033;-75
2021/11/24 02:32:57;;;;;;;11.55;10.38;;;;;;;;;;5034024;28;20025;-76
2021/11/24 02:35:24;;;;;;;11.43;10.43;;;;;;;;;;5033967;28;20088;-75
2021/11/24 02:37:51;;;;;;;11.55;10.00;;;;;;;;;;5035108;28;20033;-75
2021/11/24 02:40:18;;;;;;;12.40;10.02;;;;;;;;;;5035166;28;20405;-75
2021/11/24 02:42:46;;;;;;;11.13;10.00;;;;;;;;;;5033641;28;20083;-74
2021/11/24 02:45:13;;;;;;;14.70;10.63;;;;;;;;;;5034842;28;20032;-74
2021/11/24 02:47:40;;;;;;;11.38;9.80;;;;;;;;;;5033387;28;20053;-75
2021/11/24 02:50:07;;;;;;;11.55;10.55;;;;;;;;;;5033161;28;20029;-74
2021/11/24 02:52:35;;;;;;;13.95;10.30;;;;;;;;;;5032463;28;20022;-75
2021/11/24 02:55:04;;;;;;;10.98;9.02;;;;;;;;;;5033195;28;20056;-76
2021/11/24 02:57:35;;;;;;;12.40;9.90;;;;;;;;;;5034680;28;20025;-75
2021/11/24 03:00:16;;;;;;;10.45;9.45;;;;;;;;;;5034251;28;20022;-76
2021/11/24 03:02:44;;;;;;;10.18;9.18;;;;;;;;;;5032988;28;20030;-76
2021/11/24 03:05:12;;;;;;;12.52;8.93;;;;;;;;;;5035219;28;20034;-76
2021/11/24 03:07:39;;;;;;;9.75;8.13;;;;;;;;;;5033221;28;20099;-76
2021/11/24 03:10:07;;;;;;;9.63;8.63;;;;;;;;;;5035006;28;20018;-77
2021/11/24 03:12:34;;;;;;;9.75;8.50;;;;;;;;;;5035066;28;20018;-76
2021/11/24 03:15:01;;;;;;;11.13;7.70;;;;;;;;;;5034998;28;20030;-76
2021/11/24 03:17:28;;;;;;;10.93;8.32;;;;;;;;;;5034739;28;20050;-76
2021/11/24 03:19:57;;;;;;;10.43;8.35;;;;;;;;;;5035490;28;20118;-75
2021/11/24 03:22:25;;;;;;;10.18;8.00;;;;;;;;;;5035035;28;20049;-74
2021/11/24 03:24:55;;;;;;;8.02;7.30;;;;;;;;;;5034749;28;20026;-74
2021/11/24 03:27:27;;;;;;;9.02;6.82;;;;;;;;;;5034646;28;20029;-75
2021/11/24 03:29:54;;;;;;;10.90;6.97;;;;;;;;;;5033734;28;20105;-77
2021/11/24 03:32:21;;;;;;;8.73;8.02;;;;;;;;;;5035612;28;20021;-76
2021/11/24 03:34:48;;;;;;;10.95;7.53;;;;;;;;;;5034853;28;20041;-76
2021/11/24 03:37:17;;;;;;;12.15;6.90;;;;;;;;;;5035204;28;20429;-75
2021/11/24 03:39:46;;;;;;;8.20;6.72;;;;;;;;;;5034608;28;20021;-75
2021/11/24 03:42:13;;;;;;;9.07;6.90;;;;;;;;;;5034329;28;20394;-76
2021/11/24 03:44:40;;;;;;;9.38;6.20;;;;;;;;;;5034194;28;20052;-73
2021/11/24 03:47:07;;;;;;;8.80;7.00;;;;;;;;;;5034089;28;20474;-74
2021/11/24 03:49:34;;;;;;;10.07;6.50;;;;;;;;;;5034806;28;20153;-75
2021/11/24 03:52:02;;;;;;;10.63;7.18;;;;;;;;;;5034397;28;20026;-76
2021/11/24 03:54:29;;;;;;;10.10;7.72;;;;;;;;;;5033228;28;20028;-76
2021/11/24 03:56:56;;;;;;;10.70;7.72;;;;;;;;;;5033934;28;20029;-74
2021/11/24 03:59:23;;;;;;;9.30;6.72;;;;;;;;;;5032936;28;20030;-76
2021/11/24 04:01:50;;;;;;;12.63;7.25;;;;;;;;;;5033229;28;20064;-75
2021/11/24 04:04:18;;;;;;;8.60;6.55;;;;;;;;;;5037593;28;20033;-74
2021/11/24 04:06:45;;;;;;;9.57;6.80;;;;;;;;;;5038039;28;20398;-74
2021/11/24 04:09:12;;;;;;;11.93;6.85;;;;;;;;;;5037932;28;20067;-74
2021/11/24 04:11:39;;;;;;;12.70;7.15;;;;;;;;;;5037697;28;20093;-74
2021/11/24 04:14:06;;;;;;;12.05;7.55;;;;;;;;;;5035657;28;20056;-75
2021/11/24 04:16:33;;;;;;;11.70;7.80;;;;;;;;;;5037509;28;20021;-76
2021/11/24 04:19:01;;;;;;;12.85;7.00;;;;;;;;;;5037543;28;20033;-75
2021/11/24 04:21:29;;;;;;;17.35;7.35;;;;;;;;;;5035905;28;20029;-74
2021/11/24 04:23:57;;;;;;;12.35;6.63;;;;;;;;;;5037374;28;20018;-75
2021/11/24 04:26:24;;;;;;;13.70;7.65;;;;;;;;;;5035962;28;20025;-75
2021/11/24 04:28:51;;;;;;;10.60;6.72;;;;;;;;;;5037511;28;20021;-77
2021/11/24 04:31:18;;;;;;;12.13;6.82;;;;;;;;;;5035673;28;20390;-76
2021/11/24 04:33:46;;;;;;;15.35;7.72;;;;;;;;;;5036700;28;20029;-76
2021/11/24 04:36:13;;;;;;;12.48;6.63;;;;;;;;;;5037348;28;20394;-76
2021/11/24 04:38:40;;;;;;;12.90;7.07;;;;;;;;;;5037736;28;20022;-75
2021/11/24 04:41:07;;;;;;;11.95;6.80;;;;;;;;;;5036568;28;20108;-74
2021/11/24 04:43:44;;;;;;;12.60;7.43;;;;;;;;;;5037948;28;20036;-75
2021/11/24 04:46:16;;;;;;;11.65;7.65;;;;;;;;;;5037500;28;20101;-75
2021/11/24 04:48:43;;;;;;;13.20;7.10;;;;;;;;;;5036221;28;20017;-74
2021/11/24 04:51:11;;;;;;;16.77;7.10;;;;;;;;;;5036598;28;20114;-73
2021/11/24 04:53:38;;;;;;;15.07;7.55;;;;;;;;;;5036899;28;20026;-73
2021/11/24 04:56:06;;;;;;;17.85;7.85;;;;;;;;;;5035010;28;20029;-74
2021/11/24 04:58:37;;;;;;;13.05;7.40;;;;;;;;;;5035628;28;20026;-74
2021/11/24 05:01:05;;;;;;;14.18;6.70;;;;;;;;;;5036997;28;20041;-75
2021/11/24 05:03:32;;;;;;;13.15;6.50;;;;;;;;;;5036680;28;20113;-76
2021/11/24 05:05:59;;;;;;;12.82;6.90;;;;;;;;;;5037486;28;20041;-75
2021/11/24 05:08:26;;;;;;;13.60;7.35;;;;;;;;;;5038286;28;20409;-76
2021/11/24 05:10:53;;;;;;;15.25;7.05;;;;;;;;;;5036115;28;20017;-77
2021/11/24 05:13:20;;;;;;;11.20;6.15;;;;;;;;;;5036665;28;20028;-77
2021/11/24 05:15:50;;;;;;;17.40;7.32;;;;;;;;;;5035351;28;20029;-76
2021/11/24 05:18:29;;;;;;;16.10;6.97;;;;;;;;;;5035475;28;20033;-75
2021/11/24 05:21:02;;;;;;;9.18;7.13;;;;;;;;;;5036734;28;20052;-75
2021/11/24 05:23:32;;;;;;;13.38;7.70;;;;;;;;;;5036796;28;20371;-76
2021/11/24 05:25:59;;;;;;;14.27;7.35;;;;;;;;;;5036504;28;20026;-76
2021/11/24 05:28:26;;;;;;;17.02;8.23;;;;;;;;;;5036290;28;20093;-76
2021/11/24 05:30:53;;;;;;;12.40;7.65;;;;;;;;;;5036383;28;20509;-77
2021/11/24 05:33:23;;;;;;;12.27;7.75;;;;;;;;;;5036590;28;20046;-76
2021/11/24 05:35:51;;;;;;;12.43;7.43;;;;;;;;;;5036972;28;20025;-76
2021/11/24 05:38:18;;;;;;;16.88;6.60;;;;;;;;;;5035373;28;20045;-77
2021/11/24 05:40:46;;;;;;;14.13;6.45;;;;;;;;;;5034921;28;20030;-76
2021/11/24 05:43:20;;;;;;;13.65;6.57;;;;;;;;;;5035291;28;20026;-77
2021/11/24 05:48:21;;;;;;;15.43;7.38;;;;;;;;;;5036733;28;20053;-78
2021/11/24 05:50:49;;;;;;;14.65;7.97;;;;;;;;;;5036824;28;20482;-76
2021/11/24 05:53:17;;;;;;;17.45;8.10;;;;;;;;;;5034801;28;20108;-75
2021/11/24 05:55:45;;;;;;;14.77;7.88;;;;;;;;;;5036460;28;20037;-79
2021/11/24 05:58:13;;;;;;;12.40;8.60;;;;;;;;;;5036610;28;20030;-77
2021/11/24 06:00:41;;;;;;;18.02;9.30;;;;;;;;;;5036884;28;20033;-77
2021/11/24 06:03:09;;;;;;;18.00;8.23;;;;;;;;;;5035858;28;20078;-76
2021/11/24 06:05:36;;;;;;;17.13;9.52;;;;;;;;;;5036778;28;20034;-75
2021/11/24 06:08:03;;;;;;;20.98;10.43;;;;;;;;;;5036415;28;20105;-76
2021/11/24 06:10:31;;;;;;;17.45;10.68;;;;;;;;;;5037191;28;20029;-76
2021/11/24 06:12:58;;;;;;;16.85;10.40;;;;;;;;;;5033957;28;20059;-75
2021/11/24 06:15:25;;;;;;;15.20;10.27;;;;;;;;;;5035932;28;20052;-75
2021/11/24 06:17:52;;;;;;;16.55;10.77;;;;;;;;;;5034212;28;20021;-74
2021/11/24 06:20:19;;;;;;;18.85;11.98;;;;;;;;;;5034061;28;20109;-75
2021/11/24 06:22:46;;;;;;;18.02;13.35;;;;;;;;;;5034884;28;20025;-75
2021/11/24 06:25:14;;;;;;;16.33;12.95;;;;;;;;;;5034004;28;20032;-73
2021/11/24 06:27:42;;;;;;;17.13;13.52;;;;;;;;;;5033912;28;20025;-76
2021/11/24 06:30:10;;;;;;;18.75;14.48;;;;;;;;;;5033663;28;20026;-74
2021/11/24 06:32:37;;;;;;;21.67;15.07;;;;;;;;;;5033957;28;20444;-75
2021/11/24 06:35:05;;;;;;;18.50;14.38;;;;;;;;;;5034226;28;20548;-75
2021/11/24 06:37:32;;;;;;;22.85;15.23;;;;;;;;;;5034558;28;20139;-74
2021/11/24 06:40:00;;;;;;;20.77;14.60;;;;;;;;;;5033838;28;20060;-75
2021/11/24 06:42:27;;;;;;;22.15;14.90;;;;;;;;;;5035410;28;20029;-74
2021/11/24 06:44:54;;;;;;;20.90;14.82;;;;;;;;;;5035260;28;20036;-76
2021/11/24 06:47:21;;;;;;;22.83;15.00;;;;;;;;;;5034338;28;20030;-76
2021/11/24 06:49:49;;;;;;;20.40;14.63;;;;;;;;;;5034632;28;20071;-77
2021/11/24 06:52:16;;;;;;;19.30;15.20;;;;;;;;;;5033856;28;20093;-75
2021/11/24 06:54:43;;;;;;;24.13;14.98;;;;;;;;;;5033195;28;20487;-74
2021/11/24 06:57:10;;;;;;;22.40;16.13;;;;;;;;;;5034349;28;20025;-75
2021/11/24 06:59:38;;;;;;;19.17;15.75;;;;;;;;;;5033136;28;20111;-75
2021/11/24 07:02:05;;;;;;;19.25;16.45;;;;;;;;;;5035423;28;20025;-74
2021/11/24 07:04:57;;;;;;;25.50;16.65;;;;;;;;;;5035407;28;20054;-75
2021/11/24 07:07:24;;;;;;;19.60;16.30;;;;;;;;;;5033258;28;20494;-75
2021/11/24 07:09:52;;;;;;;22.50;17.05;;;;;;;;;;5033505;28;20022;-75
2021/11/24 07:12:24;;;;;;;25.63;17.73;;;;;;;;;;5033126;28;20049;-74
2021/11/24 07:14:55;;;;;;;23.20;17.38;;;;;;;;;;5034466;28;20390;-75
2021/11/24 07:17:23;;;;;;;24.52;17.77;;;;;;;;;;5033609;28;20029;-75
2021/11/24 07:19:50;;;;;;;26.25;18.45;;;;;;;;;;5033838;28;20394;-74
2021/11/24 07:22:18;;;;;;;22.67;19.38;;;;;;;;;;5033016;28;20030;-74
2021/11/24 07:24:45;;;;;;;25.38;19.00;;;;;;;;;;5033223;28;20522;-75
2021/11/24 07:27:13;;;;;;;21.42;19.10;;;;;;;;;;5035260;28;20025;-75
2021/11/24 07:29:40;;;;;;;22.77;19.02;;;;;;;;;;5034868;28;20028;-76
2021/11/24 07:32:08;;;;;;;26.55;20.20;;;;;;;;;;5033525;28;20099;-76
2021/11/24 07:34:36;;;;;;;26.90;20.45;;;;;;;;;;5034079;28;20473;-76
2021/11/24 07:37:03;;;;;;;24.25;19.23;;;;;;;;;;5035404;28;20025;-76
2021/11/24 07:39:31;;;;;;;28.65;19.83;;;;;;;;;;5037090;28;20031;-77
2021/11/24 07:41:59;;;;;;;24.58;20.50;;;;;;;;;;5038511;28;20562;-77
2021/11/24 07:44:27;;;;;;;24.17;21.13;;;;;;;;;;5037635;28;20025;-77
2021/11/24 07:46:54;;;;;;;31.48;22.08;;;;;;;;;;5038828;28;20108;-78
2021/11/24 07:49:21;;;;;;;27.50;21.75;;;;;;;;;;5037401;28;20396;-77
2021/11/24 07:51:49;;;;;;;24.55;21.30;;;;;;;;;;5037577;28;20026;-76
2021/11/24 07:54:16;;;;;;;35.22;21.95;;;;;;;;;;5038401;28;20093;-77
2021/11/24 07:56:43;;;;;;;28.67;22.05;;;;;;;;;;5036980;28;20033;-77
2021/11/24 07:59:10;;;;;;;30.35;22.52;;;;;;;;;;5036733;28;20022;-75
2021/11/24 08:01:37;;;;;;;28.70;22.60;;;;;;;;;;5037192;28;20025;-75
2021/11/24 08:04:05;;;;;;;35.58;23.38;;;;;;;;;;5037120;28;20057;-75
2021/11/24 08:06:32;;;;;;;27.90;23.20;;;;;;;;;;5036627;28;20029;-75
2021/11/24 08:08:59;;;;;;;26.63;23.10;;;;;;;;;;5038623;28;20092;-75
2021/11/24 08:11:26;;;;;;;30.90;23.73;;;;;;;;;;5038927;28;20018;-76
2021/11/24 08:13:53;;;;;;;32.45;24.33;;;;;;;;;;5037502;28;20032;-75
2021/11/24 08:16:20;;;;;;;27.20;22.90;;;;;;;;;;5035998;28;20030;-75
2021/11/24 08:18:47;;;;;;;30.13;23.55;;;;;;;;;;5037226;28;20075;-76
2021/11/24 08:21:15;;;;;;;34.25;24.85;;;;;;;;;;5037309;28;20029;-75
2021/11/24 08:23:42;;;;;;;29.33;23.42;;;;;;;;;;5036978;28;20029;-75
2021/11/24 08:26:09;;;;;;;29.80;23.00;;;;;;;;;;5037128;28;20017;-75
2021/11/24 08:28:36;;;;;;;36.78;24.63;;;;;;;;;;5037466;28;20022;-75
2021/11/24 08:31:03;;;;;;;33.72;23.98;;;;;;;;;;5038211;28;20018;-76
2021/11/24 08:33:31;;;;;;;32.83;24.40;;;;;;;;;;5037464;28;20029;-76
2021/11/24 08:35:58;;;;;;;32.13;24.38;;;;;;;;;;5036714;28;20021;-76
2021/11/24 08:38:25;;;;;;;32.22;25.38;;;;;;;;;;5036842;28;20111;-75
2021/11/24 08:40:52;;;;;;;31.38;24.60;;;;;;;;;;5036308;28;20367;-75
2021/11/24 08:43:21;;;;;;;27.90;24.75;;;;;;;;;;5037078;28;20100;-75
2021/11/24 08:45:49;;;;;;;30.98;25.23;;;;;;;;;;5037195;28;20386;-75
2021/11/24 08:48:16;;;;;;;28.80;24.42;;;;;;;;;;5036670;28;20029;-76
2021/11/24 08:50:43;;;;;;;27.23;24.25;;;;;;;;;;5036464;28;20367;-74
2021/11/24 08:53:10;;;;;;;27.98;23.95;;;;;;;;;;5037014;28;20014;-74
2021/11/24 08:55:38;;;;;;;30.00;24.67;;;;;;;;;;5035530;28;20064;-76
2021/11/24 08:58:05;;;;;;;29.75;24.40;;;;;;;;;;5037183;28;20035;-76
2021/11/24 09:00:34;;;;;;;32.10;25.65;;;;;;;;;;5036316;28;20159;-76
2021/11/24 09:03:01;;;;;;;30.45;24.27;;;;;;;;;;5035417;28;20076;-75
2021/11/24 09:05:28;;;;;;;32.13;25.73;;;;;;;;;;5036295;28;20132;-76
2021/11/24 09:07:56;;;;;;;35.33;27.17;;;;;;;;;;5035642;28;20036;-77
2021/11/24 09:10:23;;;;;;;32.25;25.40;;;;;;;;;;5035353;28;20410;-77
2021/11/24 09:12:50;;;;;;;35.55;26.30;;;;;;;;;;5036566;28;20093;-76
2021/11/24 09:15:18;;;;;;;34.05;25.85;;;;;;;;;;5036505;28;20022;-77
2021/11/24 09:17:45;;;;;;;35.75;26.60;;;;;;;;;;5036734;28;20032;-76
2021/11/24 09:20:13;;;;;;;30.92;25.42;;;;;;;;;;5035525;28;20036;-76
2021/11/24 09:22:43;;;;;;;35.00;25.77;;;;;;;;;;5034817;28;20021;-75
2021/11/24 09:25:13;;;;;;;35.38;26.58;;;;;;;;;;5034594;28;20386;-75
2021/11/24 09:27:55;;;;;;;37.47;25.98;;;;;;;;;;5034444;28;20431;-77
2021/11/24 09:30:22;;;;;;;31.38;25.95;;;;;;;;;;5034950;28;20026;-77
2021/11/24 09:32:50;;;;;;;36.58;25.95;;;;;;;;;;5036144;28;20045;-77
2021/11/24 09:35:20;;;;;;;33.10;24.85;;;;;;;;;;5035448;28;20556;-79
2021/11/24 09:37:47;;;;;;;41.95;25.38;;;;;;;;;;5035425;28;20025;-75
2021/11/24 09:40:14;;;;;;;38.30;25.13;;;;;;;;;;5036632;28;20022;-75
2021/11/24 09:42:43;;;;;;;31.98;24.55;;;;;;;;;;5037833;28;20029;-76
2021/11/24 09:45:11;;;;;;;40.03;26.02;;;;;;;;;;5037861;28;20478;-79
2021/11/24 09:47:38;;;;;;;40.47;26.23;;;;;;;;;;5035554;28;20460;-77
2021/11/24 09:50:07;;;;;;;36.40;26.17;;;;;;;;;;5036467;28;20087;-77
2021/11/24 09:52:38;;;;;;;35.85;25.48;;;;;;;;;;5035673;28;20108;-75
2021/11/24 09:55:06;;;;;;;30.90;24.60;;;;;;;;;;5035908;28;20028;-76
2021/11/24 09:57:33;;;;;;;34.17;24.65;;;;;;;;;;5035583;28;20450;-77
2021/11/24 10:00:00;;;;;;;33.55;25.40;;;;;;;;;;5034099;28;20474;-76
2021/11/24 10:02:28;;;;;;;45.75;25.67;;;;;;;;;;5035395;28;20026;-76
2021/11/24 10:04:55;;;;;;;38.08;25.27;;;;;;;;;;5034435;28;20521;-74
2021/11/24 10:07:22;;;;;;;36.60;25.50;;;;;;;;;;5035209;28;20032;-75
2021/11/24 10:09:50;;;;;;;37.55;24.77;;;;;;;;;;5035704;28;20025;-74
2021/11/24 10:12:17;;;;;;;39.17;25.45;;;;;;;;;;5034321;28;20029;-75
2021/11/24 10:14:45;;;;;;;42.22;25.40;;;;;;;;;;5035178;28;20067;-75
2021/11/24 10:17:12;;;;;;;45.50;25.80;;;;;;;;;;5035318;28;20115;-75
2021/11/24 10:19:39;;;;;;;41.88;24.38;;;;;;;;;;5034080;28;20034;-77
2021/11/24 10:22:11;;;;;;;35.33;25.35;;;;;;;;;;5035060;28;20029;-75
2021/11/24 10:24:39;;;;;;;37.83;24.60;;;;;;;;;;5033630;28;20497;-74
2021/11/24 10:27:08;;;;;;;50.50;25.63;;;;;;;;;;5034644;28;20036;-75
2021/11/24 10:29:36;;;;;;;43.90;25.40;;;;;;;;;;5033523;28;20033;-75
2021/11/24 10:32:07;;;;;;;39.67;25.83;;;;;;;;;;5034672;28;20079;-74
2021/11/24 10:34:35;;;;;;;41.55;24.95;;;;;;;;;;5034125;28;20030;-76
2021/11/24 10:37:08;;;;;;;37.17;24.98;;;;;;;;;;5035973;28;20085;-74
2021/11/24 10:39:38;;;;;;;40.47;26.38;;;;;;;;;;5034758;28;20055;-74
2021/11/24 10:42:14;;;;;;;39.10;25.48;;;;;;;;;;5035008;28;20032;-74
2021/11/24 10:44:46;;;;;;;48.53;26.65;;;;;;;;;;5034725;28;20049;-76
2021/11/24 10:47:14;;;;;;;42.50;27.05;;;;;;;;;;5033158;28;20116;-75
2021/11/24 10:49:44;;;;;;;41.92;25.92;;;;;;;;;;5034326;28;20568;-75
2021/11/24 10:52:13;;;;;;;40.10;26.48;;;;;;;;;;5033028;28;20482;-75
2021/11/24 10:54:40;;;;;;;44.88;26.88;;;;;;;;;;5033630;28;20117;-75
2021/11/24 10:57:09;;;;;;;38.50;26.38;;;;;;;;;;5034190;28;20029;-74
2021/11/24 10:59:37;;;;;;;40.60;26.80;;;;;;;;;;5032762;28;20025;-74
2021/11/24 11:02:17;;;;;;;41.88;26.30;;;;;;;;;;5032800;28;20029;-75
2021/11/24 11:05:02;;;;;;;42.60;25.60;;;;;;;;;;5034102;28;20107;-75
2021/11/24 11:07:31;;;;;;;44.65;26.48;;;;;;;;;;5032844;28;20026;-75
2021/11/24 11:10:09;;;;;;;33.70;26.13;;;;;;;;;;5032978;28;20474;-75
2021/11/24 11:12:37;;;;;;;40.85;26.02;;;;;;;;;;5035659;28;20025;-76
2021/11/24 11:15:21;;;;;;;39.22;26.08;;;;;;;;;;5038406;28;20021;-75
2021/11/24 11:17:51;;;;;;;42.13;25.38;;;;;;;;;;5038469;28;20021;-75
2021/11/24 11:20:19;;;;;;;42.92;26.50;;;;;;;;;;5037932;28;20045;-74
2021/11/24 11:22:46;;;;;;;36.63;25.23;;;;;;;;;;5038116;28;20497;-75
2021/11/24 11:25:13;;;;;;;35.47;24.80;;;;;;;;;;5036695;28;20393;-74
2021/11/24 11:27:43;;;;;;;36.85;25.90;;;;;;;;;;5036786;28;20029;-74
2021/11/24 11:30:10;;;;;;;42.55;25.88;;;;;;;;;;5037237;28;20071;-74
2021/11/24 11:32:37;;;;;;;33.33;24.63;;;;;;;;;;5037898;28;20108;-75
2021/11/24 11:35:05;;;;;;;38.55;24.40;;;;;;;;;;5037735;28;20037;-75
2021/11/24 11:37:32;;;;;;;42.05;25.77;;;;;;;;;;5037881;28;20360;-75
2021/11/24 11:40:00;;;;;;;36.83;25.63;;;;;;;;;;5037837;28;20093;-75
2021/11/24 11:42:30;;;;;;;33.70;25.30;;;;;;;;;;5038197;28;20036;-74
2021/11/24 11:45:01;;;;;;;30.88;24.63;;;;;;;;;;5037556;28;20029;-74
2021/11/24 11:47:46;;;;;;;35.40;24.55;;;;;;;;;;5037545;28;20493;-75
2021/11/24 11:50:14;;;;;;;34.60;24.08;;;;;;;;;;5037590;28;20025;-74
2021/11/24 11:52:41;;;;;;;34.05;25.20;;;;;;;;;;5037449;28;20478;-74
2021/11/24 11:55:22;;;;;;;30.55;25.75;;;;;;;;;;5035815;28;20398;-74
2021/11/24 11:57:50;;;;;;;32.65;24.95;;;;;;;;;;5036289;28;20033;-76
2021/11/24 12:00:17;;;;;;;34.67;25.17;;;;;;;;;;5036061;28;20033;-75
2021/11/24 12:02:52;;;;;;;29.67;24.80;;;;;;;;;;5037313;28;20567;-75
2021/11/24 12:05:19;;;;;;;33.10;25.30;;;;;;;;;;5035619;28;20049;-75
2021/11/24 12:08:05;;;;;;;31.60;24.70;;;;;;;;;;5037180;28;20041;-75
2021/11/24 12:10:50;;;;;;;27.90;24.50;;;;;;;;;;5037520;28;20018;-75
2021/11/24 12:13:17;;;;;;;30.95;25.60;;;;;;;;;;5036592;28;20340;-75
2021/11/24 12:15:44;;;;;;;32.03;24.50;;;;;;;;;;5036937;28;20025;-75
2021/11/24 12:18:11;;;;;;;27.45;23.83;;;;;;;;;;5036296;28;20032;-75
2021/11/24 12:20:40;;;;;;;31.55;24.35;;;;;;;;;;5036835;28;20414;-75
2021/11/24 12:23:13;;;;;;;31.45;23.60;;;;;;;;;;5035785;28;20021;-75
2021/11/24 12:25:40;;;;;;;32.08;24.25;;;;;;;;;;5036899;28;20386;-76
2021/11/24 12:28:10;;;;;;;28.45;24.27;;;;;;;;;;5035640;28;20120;-75
2021/11/24 12:33:23;;;;;;;31.42;24.75;;;;;;;;;;5036669;28;20030;-74
2021/11/24 12:35:59;;;;;;;34.28;25.40;;;;;;;;;;5035610;28;20052;-75
2021/11/24 12:38:28;;;;;;;28.70;25.63;;;;;;;;;;5035664;28;20025;-74
2021/11/24 12:40:57;;;;;;;29.63;24.33;;;;;;;;;;5035285;28;20036;-74
2021/11/24 12:43:26;;;;;;;32.65;24.30;;;;;;;;;;5036965;28;20437;-75
2021/11/24 12:46:06;;;;;;;33.22;25.00;;;;;;;;;;5035489;28;20025;-75
2021/11/24 12:48:33;;;;;;;27.02;24.00;;;;;;;;;;5035404;28;20030;-74
2021/11/24 12:51:01;;;;;;;33.58;24.17;;;;;;;;;;5036742;28;20548;-75
2021/11/24 12:53:28;;;;;;;28.98;24.00;;;;;;;;;;5036425;28;20097;-74
2021/11/24 12:56:05;;;;;;;27.95;24.52;;;;;;;;;;5035080;28;20095;-74
2021/11/24 12:58:33;;;;;;;28.85;24.88;;;;;;;;;;5035154;28;20517;-74
2021/11/24 13:01:06;;;;;;;35.42;24.90;;;;;;;;;;5036124;28;20032;-75
2021/11/24 13:03:33;;;;;;;29.35;23.92;;;;;;;;;;5034622;28;20132;-74
2021/11/24 13:06:00;;;;;;;33.03;24.40;;;;;;;;;;5034575;28;20033;-75
2021/11/24 13:08:27;;;;;;;27.25;24.48;;;;;;;;;;5035942;28;20048;-74
2021/11/24 13:11:05;;;;;;;27.95;24.23;;;;;;;;;;5034791;28;20025;-74
2021/11/24 13:13:32;;;;;;;29.52;24.40;;;;;;;;;;5035908;28;20021;-74
2021/11/24 13:15:59;;;;;;;27.80;24.73;;;;;;;;;;5034516;28;20052;-75
2021/11/24 13:18:27;;;;;;;26.58;24.00;;;;;;;;;;5035356;28;20088;-75
2021/11/24 13:20:54;;;;;;;26.23;23.63;;;;;;;;;;5035042;28;20103;-75
2021/11/24 13:23:22;;;;;;;26.63;23.70;;;;;;;;;;5034208;28;20036;-75
2021/11/24 13:25:49;;;;;;;26.42;23.55;;;;;;;;;;5033928;28;20056;-75
2021/11/24 13:28:18;;;;;;;27.70;24.63;;;;;;;;;;5033965;28;20025;-73
2021/11/24 13:30:48;;;;;;;26.48;23.60;;;;;;;;;;5035115;28;20033;-74
2021/11/24 13:33:18;;;;;;;25.15;22.73;;;;;;;;;;5034041;28;20032;-74
2021/11/24 13:35:47;;;;;;;25.98;23.45;;;;;;;;;;5035006;28;20026;-74
2021/11/24 13:38:22;;;;;;;25.70;23.25;;;;;;;;;;5034060;28;20036;-75
2021/11/24 13:40:51;;;;;;;25.60;23.25;;;;;;;;;;5035143;28;20034;-76
2021/11/24 13:43:37;;;;;;;26.08;23.70;;;;;;;;;;5034952;28;20394;-75
2021/11/24 13:46:30;;;;;;;26.48;23.85;;;;;;;;;;5035275;28;20033;-75
2021/11/24 13:49:03;;;;;;;26.23;23.73;;;;;;;;;;5034227;28;20041;-75
2021/11/24 13:51:31;;;;;;;26.48;23.92;;;;;;;;;;5035136;28;20443;-75
2021/11/24 13:54:08;;;;;;;26.73;24.02;;;;;;;;;;5035014;28;20064;-75
2021/11/24 13:56:43;;;;;;;25.55;23.25;;;;;;;;;;5033651;28;20124;-75
2021/11/24 13:59:11;;;;;;;27.33;24.60;;;;;;;;;;5035185;28;20026;-75
2021/11/24 14:01:44;;;;;;;26.55;24.00;;;;;;;;;;5035150;28;20512;-75
2021/11/24 14:04:13;;;;;;;28.02;25.10;;;;;;;;;;5034743;28;20056;-75
2021/11/24 14:06:43;;;;;;;27.30;24.52;;;;;;;;;;5034975;28;20029;-75
2021/11/24 14:09:20;;;;;;;27.73;25.33;;;;;;;;;;5033535;28;20049;-75
2021/11/24 14:12:10;;;;;;;26.77;24.50;;;;;;;;;;5033382;28;20025;-75
2021/11/24 14:14:42;;;;;;;26.67;24.30;;;;;;;;;;5028251;28;20037;-76
2021/11/24 14:17:10;;;;;;;29.48;26.63;;;;;;;;;;5033700;28;20029;-76
2021/11/24 14:19:38;;;;;;;27.73;25.33;;;;;;;;;;5033346;28;20034;-76
2021/11/24 14:22:06;;;;;;;28.13;26.02;;;;;;;;;;5034793;28;20025;-76
2021/11/24 14:24:33;;;;;;;29.13;26.63;;;;;;;;;;5034990;28;20018;-74
2021/11/24 14:27:01;;;;;;;29.65;26.98;;;;;;;;;;5034570;28;20026;-75
2021/11/24 14:29:28;;;;;;;27.90;25.73;;;;;;;;;;5034658;28;20382;-75
2021/11/24 14:31:56;;;;;;;28.25;25.92;;;;;;;;;;5032718;28;20021;-74
2021/11/24 14:34:24;;;;;;;28.65;26.17;;;;;;;;;;5034042;28;20057;-75